sensor_id;sensor_type;location;lat;lon;timestamp;pressure;altitude;pressure_sealevel;temperature;humidity
53546;BME280;39432;51.902;10.844;2022-12-29T00:01:56;98433.56;;;8.76;100.00
53546;BME280;39432;51.902;10.844;2022-12-29T00:04:25;98417.19;;;8.76;100.00
53546;BME280;39432;51.902;10.844;2022-12-29T00:06:55;98416.09;;;8.77;100.00
53546;BME280;39432;51.902;10.844;2022-12-29T00:09:27;98411.16;;;8.79;100.00
53546;BME280;39432;51.902;10.844;2022-12-29T00:11:57;98419.34;;;8.84;100.00
53546;BME280;39432;51.902;10.844;2022-12-29T00:14:27;98415.53;;;8.85;100.00
53546;BME280;39432;51.902;10.844;2022-12-29T00:17:18;98402.94;;;9.04;100.00
53546;BME280;39432;51.902;10.844;2022-12-29T00:19:47;98410.03;;;9.05;100.00
53546;BME280;39432;51.902;10.844;2022-12-29T00:22:29;98405.66;;;9.04;100.00
53546;BME280;39432;51.902;10.844;2022-12-29T00:25:14;98402.88;;;9.24;100.00
53546;BME280;39432;51.902;10.844;2022-12-29T00:27:56;98402.88;;;9.30;100.00
53546;BME280;39432;51.902;10.844;2022-12-29T00:30:39;98388.97;;;9.16;100.00
53546;BME280;39432;51.902;10.844;2022-12-29T00:33:26;98384.81;;;9.34;100.00
53546;BME280;39432;51.902;10.844;2022-12-29T00:36:10;98389.44;;;9.38;100.00
53546;BME280;39432;51.902;10.844;2022-12-29T00:38:45;98388.63;;;9.38;100.00
53546;BME280;39432;51.902;10.844;2022-12-29T00:41:31;98389.72;;;9.37;100.00
53546;BME280;39432;51.902;10.844;2022-12-29T00:44:13;98391.97;;;9.24;100.00
53546;BME280;39432;51.902;10.844;2022-12-29T00:46:43;98404.75;;;9.34;100.00
53546;BME280;39432;51.902;10.844;2022-12-29T00:49:13;98400.09;;;9.40;100.00
53546;BME280;39432;51.902;10.844;2022-12-29T00:51:57;98407.69;;;9.48;100.00
53546;BME280;39432;51.902;10.844;2022-12-29T00:54:28;98400.00;;;9.55;100.00
53546;BME280;39432;51.902;10.844;2022-12-29T00:57:01;98396.75;;;9.48;100.00
53546;BME280;39432;51.902;10.844;2022-12-29T00:59:31;98406.00;;;9.62;100.00
53546;BME280;39432;51.902;10.844;2022-12-29T01:02:01;98409.28;;;9.59;100.00
53546;BME280;39432;51.902;10.844;2022-12-29T01:04:31;98387.44;;;9.59;100.00
53546;BME280;39432;51.902;10.844;2022-12-29T01:07:01;98399.91;;;9.70;100.00
53546;BME280;39432;51.902;10.844;2022-12-29T01:09:31;98401.06;;;9.64;100.00
53546;BME280;39432;51.902;10.844;2022-12-29T01:12:16;98409.78;;;9.66;100.00
53546;BME280;39432;51.902;10.844;2022-12-29T01:15:10;98407.06;;;9.61;100.00
53546;BME280;39432;51.902;10.844;2022-12-29T01:17:40;98414.19;;;9.62;100.00
53546;BME280;39432;51.902;10.844;2022-12-29T01:20:11;98410.84;;;9.70;100.00
53546;BME280;39432;51.902;10.844;2022-12-29T01:22:41;98408.16;;;9.65;100.00
53546;BME280;39432;51.902;10.844;2022-12-29T01:25:10;98417.91;;;9.76;100.00
53546;BME280;39432;51.902;10.844;2022-12-29T01:27:42;98402.09;;;10.18;100.00
53546;BME280;39432;51.902;10.844;2022-12-29T01:30:12;98403.63;;;9.95;100.00
53546;BME280;39432;51.902;10.844;2022-12-29T01:32:44;98409.78;;;9.66;100.00
53546;BME280;39432;51.902;10.844;2022-12-29T01:35:14;98397.75;;;9.72;100.00
53546;BME280;39432;51.902;10.844;2022-12-29T01:37:43;98390.75;;;9.95;100.00
53546;BME280;39432;51.902;10.844;2022-12-29T01:40:14;98386.28;;;10.10;100.00
53546;BME280;39432;51.902;10.844;2022-12-29T01:42:47;98392.75;;;9.85;100.00
53546;BME280;39432;51.902;10.844;2022-12-29T01:45:17;98392.81;;;9.74;100.00
53546;BME280;39432;51.902;10.844;2022-12-29T01:47:49;98399.44;;;9.63;100.00
53546;BME280;39432;51.902;10.844;2022-12-29T01:50:26;98381.03;;;9.79;100.00
53546;BME280;39432;51.902;10.844;2022-12-29T01:53:01;98368.22;;;9.74;100.00
53546;BME280;39432;51.902;10.844;2022-12-29T01:55:35;98367.78;;;9.57;100.00
53546;BME280;39432;51.902;10.844;2022-12-29T01:58:10;98363.38;;;9.61;100.00
53546;BME280;39432;51.902;10.844;2022-12-29T02:00:43;98342.69;;;9.50;100.00
53546;BME280;39432;51.902;10.844;2022-12-29T02:03:14;98329.78;;;9.61;100.00
53546;BME280;39432;51.902;10.844;2022-12-29T02:05:49;98314.22;;;9.61;100.00
53546;BME280;39432;51.902;10.844;2022-12-29T02:08:22;98313.72;;;9.54;100.00
53546;BME280;39432;51.902;10.844;2022-12-29T02:10:55;98299.72;;;9.66;100.00
53546;BME280;39432;51.902;10.844;2022-12-29T02:13:28;98304.41;;;9.60;100.00
53546;BME280;39432;51.902;10.844;2022-12-29T02:16:06;98318.56;;;9.67;100.00
53546;BME280;39432;51.902;10.844;2022-12-29T02:18:45;98320.13;;;9.79;100.00
53546;BME280;39432;51.902;10.844;2022-12-29T02:21:36;98316.38;;;9.69;100.00
53546;BME280;39432;51.902;10.844;2022-12-29T02:24:46;98324.97;;;9.87;100.00
53546;BME280;39432;51.902;10.844;2022-12-29T02:27:34;98333.75;;;9.84;100.00
53546;BME280;39432;51.902;10.844;2022-12-29T02:30:16;98331.28;;;9.82;100.00
53546;BME280;39432;51.902;10.844;2022-12-29T02:32:57;98349.31;;;9.83;100.00
53546;BME280;39432;51.902;10.844;2022-12-29T02:35:35;98344.06;;;9.92;100.00
53546;BME280;39432;51.902;10.844;2022-12-29T02:38:14;98342.97;;;9.93;100.00
53546;BME280;39432;51.902;10.844;2022-12-29T02:40:52;98336.06;;;10.06;100.00
53546;BME280;39432;51.902;10.844;2022-12-29T02:43:26;98343.53;;;9.90;100.00
53546;BME280;39432;51.902;10.844;2022-12-29T02:46:04;98339.75;;;9.86;100.00
53546;BME280;39432;51.902;10.844;2022-12-29T02:48:46;98314.72;;;10.08;100.00
53546;BME280;39432;51.902;10.844;2022-12-29T02:51:23;98321.63;;;10.00;100.00
53546;BME280;39432;51.902;10.844;2022-12-29T02:53:58;98309.72;;;10.15;100.00
53546;BME280;39432;51.902;10.844;2022-12-29T02:56:40;98297.94;;;10.19;100.00
53546;BME280;39432;51.902;10.844;2022-12-29T02:59:10;98306.13;;;10.24;100.00
53546;BME280;39432;51.902;10.844;2022-12-29T03:01:59;98308.91;;;10.14;100.00
53546;BME280;39432;51.902;10.844;2022-12-29T03:05:03;98300.72;;;10.14;100.00
53546;BME280;39432;51.902;10.844;2022-12-29T03:07:40;98294.44;;;10.14;100.00
53546;BME280;39432;51.902;10.844;2022-12-29T03:10:22;98284.72;;;10.32;100.00
53546;BME280;39432;51.902;10.844;2022-12-29T03:12:58;98293.63;;;10.13;100.00
53546;BME280;39432;51.902;10.844;2022-12-29T03:15:44;98297.47;;;10.12;100.00
53546;BME280;39432;51.902;10.844;2022-12-29T03:18:37;98295.69;;;10.26;100.00
53546;BME280;39432;51.902;10.844;2022-12-29T03:21:15;98302.34;;;10.15;100.00
53546;BME280;39432;51.902;10.844;2022-12-29T03:23:48;98309.38;;;10.26;100.00
53546;BME280;39432;51.902;10.844;2022-12-29T03:26:19;98309.22;;;10.42;100.00
53546;BME280;39432;51.902;10.844;2022-12-29T03:28:52;98302.09;;;10.46;100.00
53546;BME280;39432;51.902;10.844;2022-12-29T03:31:28;98300.06;;;10.57;100.00
53546;BME280;39432;51.902;10.844;2022-12-29T03:33:59;98315.97;;;10.78;100.00
53546;BME280;39432;51.902;10.844;2022-12-29T03:39:22;98318.25;;;11.14;100.00
53546;BME280;39432;51.902;10.844;2022-12-29T03:41:57;98305.97;;;10.88;100.00
53546;BME280;39432;51.902;10.844;2022-12-29T03:44:32;98304.69;;;11.04;100.00
53546;BME280;39432;51.902;10.844;2022-12-29T03:47:03;98307.47;;;11.42;100.00
53546;BME280;39432;51.902;10.844;2022-12-29T03:49:33;98306.53;;;10.90;100.00
53546;BME280;39432;51.902;10.844;2022-12-29T03:52:06;98300.94;;;11.19;100.00
53546;BME280;39432;51.902;10.844;2022-12-29T03:54:41;98282.09;;;10.93;100.00
53546;BME280;39432;51.902;10.844;2022-12-29T03:57:12;98286.78;;;10.93;100.00
53546;BME280;39432;51.902;10.844;2022-12-29T03:59:50;98269.03;;;11.09;100.00
53546;BME280;39432;51.902;10.844;2022-12-29T04:02:20;98280.22;;;10.70;100.00
53546;BME280;39432;51.902;10.844;2022-12-29T04:04:51;98271.25;;;10.64;100.00
53546;BME280;39432;51.902;10.844;2022-12-29T04:07:24;98271.66;;;10.76;100.00
53546;BME280;39432;51.902;10.844;2022-12-29T04:09:54;98255.16;;;10.81;100.00
53546;BME280;39432;51.902;10.844;2022-12-29T04:12:26;98263.19;;;10.97;100.00
53546;BME280;39432;51.902;10.844;2022-12-29T04:14:56;98262.97;;;10.69;100.00
53546;BME280;39432;51.902;10.844;2022-12-29T04:17:25;98259.81;;;11.05;100.00
53546;BME280;39432;51.902;10.844;2022-12-29T04:19:55;98266.81;;;10.92;100.00
53546;BME280;39432;51.902;10.844;2022-12-29T04:22:47;98261.34;;;10.92;100.00
53546;BME280;39432;51.902;10.844;2022-12-29T04:25:17;98269.94;;;11.04;100.00
53546;BME280;39432;51.902;10.844;2022-12-29T04:27:47;98259.22;;;11.08;100.00
53546;BME280;39432;51.902;10.844;2022-12-29T04:30:35;98253.22;;;11.25;100.00
53546;BME280;39432;51.902;10.844;2022-12-29T04:33:23;98258.44;;;11.26;100.00
53546;BME280;39432;51.902;10.844;2022-12-29T04:35:53;98251.69;;;11.38;100.00
53546;BME280;39432;51.902;10.844;2022-12-29T04:38:25;98245.75;;;11.30;100.00
53546;BME280;39432;51.902;10.844;2022-12-29T04:40:58;98239.84;;;11.23;100.00
53546;BME280;39432;51.902;10.844;2022-12-29T04:43:29;98243.03;;;11.49;100.00
53546;BME280;39432;51.902;10.844;2022-12-29T04:46:32;98234.66;;;11.59;100.00
53546;BME280;39432;51.902;10.844;2022-12-29T04:49:07;98241.91;;;11.31;100.00
53546;BME280;39432;51.902;10.844;2022-12-29T04:52:00;98235.34;;;11.32;100.00
53546;BME280;39432;51.902;10.844;2022-12-29T04:54:33;98241.53;;;11.57;100.00
53546;BME280;39432;51.902;10.844;2022-12-29T04:57:11;98215.50;;;11.41;100.00
53546;BME280;39432;51.902;10.844;2022-12-29T04:59:44;98217.25;;;11.50;100.00
53546;BME280;39432;51.902;10.844;2022-12-29T05:02:14;98230.25;;;11.58;100.00
53546;BME280;39432;51.902;10.844;2022-12-29T05:04:46;98234.31;;;11.80;100.00
53546;BME280;39432;51.902;10.844;2022-12-29T05:07:16;98218.09;;;11.65;100.00
53546;BME280;39432;51.902;10.844;2022-12-29T05:09:50;98222.91;;;11.40;100.00
53546;BME280;39432;51.902;10.844;2022-12-29T05:12:19;98237.69;;;11.58;100.00
53546;BME280;39432;51.902;10.844;2022-12-29T05:14:57;98229.59;;;11.48;100.00
53546;BME280;39432;51.902;10.844;2022-12-29T05:17:26;98213.50;;;11.27;100.00
53546;BME280;39432;51.902;10.844;2022-12-29T05:19:56;98221.53;;;11.56;100.00
53546;BME280;39432;51.902;10.844;2022-12-29T05:22:26;98220.13;;;11.59;100.00
53546;BME280;39432;51.902;10.844;2022-12-29T05:24:58;98230.69;;;11.84;100.00
53546;BME280;39432;51.902;10.844;2022-12-29T05:27:31;98228.78;;;11.66;100.00
53546;BME280;39432;51.902;10.844;2022-12-29T05:30:10;98234.34;;;11.61;100.00
53546;BME280;39432;51.902;10.844;2022-12-29T05:32:40;98229.91;;;11.65;100.00
53546;BME280;39432;51.902;10.844;2022-12-29T05:35:10;98226.06;;;11.66;100.00
53546;BME280;39432;51.902;10.844;2022-12-29T05:37:40;98234.34;;;11.61;100.00
53546;BME280;39432;51.902;10.844;2022-12-29T05:40:12;98214.41;;;11.74;100.00
53546;BME280;39432;51.902;10.844;2022-12-29T05:42:42;98211.63;;;11.60;100.00
53546;BME280;39432;51.902;10.844;2022-12-29T05:45:33;98206.53;;;11.54;100.00
53546;BME280;39432;51.902;10.844;2022-12-29T05:48:31;98200.44;;;11.57;100.00
53546;BME280;39432;51.902;10.844;2022-12-29T05:51:12;98198.44;;;11.63;100.00
53546;BME280;39432;51.902;10.844;2022-12-29T05:53:48;98193.13;;;11.52;100.00
53546;BME280;39432;51.902;10.844;2022-12-29T05:56:21;98197.34;;;11.45;100.00
53546;BME280;39432;51.902;10.844;2022-12-29T05:58:55;98205.53;;;11.64;100.00
53546;BME280;39432;51.902;10.844;2022-12-29T06:01:25;98191.75;;;11.69;100.00
53546;BME280;39432;51.902;10.844;2022-12-29T06:03:56;98204.13;;;11.66;100.00
53546;BME280;39432;51.902;10.844;2022-12-29T06:06:25;98199.47;;;11.48;100.00
53546;BME280;39432;51.902;10.844;2022-12-29T06:08:56;98197.22;;;11.36;100.00
53546;BME280;39432;51.902;10.844;2022-12-29T06:11:28;98203.09;;;11.62;100.00
53546;BME280;39432;51.902;10.844;2022-12-29T06:13:59;98206.38;;;11.45;100.00
53546;BME280;39432;51.902;10.844;2022-12-29T06:16:28;98193.19;;;11.66;100.00
53546;BME280;39432;51.902;10.844;2022-12-29T06:19:00;98197.53;;;11.67;100.00
53546;BME280;39432;51.902;10.844;2022-12-29T06:21:30;98208.28;;;11.96;100.00
53546;BME280;39432;51.902;10.844;2022-12-29T06:24:00;98205.44;;;11.88;100.00
53546;BME280;39432;51.902;10.844;2022-12-29T06:26:32;98208.69;;;11.90;100.00
53546;BME280;39432;51.902;10.844;2022-12-29T06:29:03;98209.28;;;11.86;100.00
53546;BME280;39432;51.902;10.844;2022-12-29T06:31:33;98218.34;;;12.01;100.00
53546;BME280;39432;51.902;10.844;2022-12-29T06:34:04;98219.78;;;11.79;100.00
53546;BME280;39432;51.902;10.844;2022-12-29T06:36:35;98212.94;;;11.63;100.00
53546;BME280;39432;51.902;10.844;2022-12-29T06:39:05;98185.34;;;11.59;100.00
53546;BME280;39432;51.902;10.844;2022-12-29T06:41:37;98179.13;;;11.86;100.00
53546;BME280;39432;51.902;10.844;2022-12-29T06:44:39;98184.34;;;12.02;100.00
53546;BME280;39432;51.902;10.844;2022-12-29T06:47:09;98194.63;;;11.77;100.00
53546;BME280;39432;51.902;10.844;2022-12-29T06:49:39;98170.22;;;11.62;100.00
53546;BME280;39432;51.902;10.844;2022-12-29T06:52:08;98181.28;;;11.90;100.00
53546;BME280;39432;51.902;10.844;2022-12-29T06:54:39;98172.00;;;11.53;100.00
53546;BME280;39432;51.902;10.844;2022-12-29T06:57:11;98195.06;;;11.84;100.00
53546;BME280;39432;51.902;10.844;2022-12-29T06:59:42;98203.69;;;11.59;100.00
53546;BME280;39432;51.902;10.844;2022-12-29T07:02:11;98214.63;;;11.59;100.00
53546;BME280;39432;51.902;10.844;2022-12-29T07:04:42;98212.28;;;11.71;100.00
53546;BME280;39432;51.902;10.844;2022-12-29T07:07:11;98207.00;;;11.75;100.00
53546;BME280;39432;51.902;10.844;2022-12-29T07:09:41;98212.44;;;11.61;100.00
53546;BME280;39432;51.902;10.844;2022-12-29T07:12:13;98214.63;;;11.59;100.00
53546;BME280;39432;51.902;10.844;2022-12-29T07:14:43;98191.06;;;11.44;100.00
53546;BME280;39432;51.902;10.844;2022-12-29T07:17:12;98202.28;;;11.61;100.00
53546;BME280;39432;51.902;10.844;2022-12-29T07:19:42;98195.47;;;11.59;100.00
53546;BME280;39432;51.902;10.844;2022-12-29T07:22:11;98201.56;;;11.56;100.00
53546;BME280;39432;51.902;10.844;2022-12-29T07:24:41;98194.47;;;11.36;100.00
53546;BME280;39432;51.902;10.844;2022-12-29T07:27:13;98210.75;;;11.46;100.00
53546;BME280;39432;51.902;10.844;2022-12-29T07:29:43;98200.44;;;11.57;100.00
53546;BME280;39432;51.902;10.844;2022-12-29T07:32:13;98214.75;;;11.35;100.00
53546;BME280;39432;51.902;10.844;2022-12-29T07:34:43;98220.88;;;11.46;100.00
53546;BME280;39432;51.902;10.844;2022-12-29T07:37:15;98212.59;;;11.51;100.00
53546;BME280;39432;51.902;10.844;2022-12-29T07:39:45;98190.69;;;11.51;100.00
53546;BME280;39432;51.902;10.844;2022-12-29T07:42:17;98207.78;;;11.61;100.00
53546;BME280;39432;51.902;10.844;2022-12-29T07:44:50;98210.97;;;11.50;100.00
53546;BME280;39432;51.902;10.844;2022-12-29T07:47:25;98207.00;;;11.75;100.00
53546;BME280;39432;51.902;10.844;2022-12-29T07:49:55;98216.13;;;11.70;100.00
53546;BME280;39432;51.902;10.844;2022-12-29T07:52:24;98218.34;;;11.68;100.00
53546;BME280;39432;51.902;10.844;2022-12-29T07:54:54;98219.28;;;11.77;100.00
53546;BME280;39432;51.902;10.844;2022-12-29T07:57:26;98215.59;;;11.68;100.00
53546;BME280;39432;51.902;10.844;2022-12-29T07:59:58;98206.25;;;11.69;100.00
53546;BME280;39432;51.902;10.844;2022-12-29T08:02:37;98220.69;;;11.75;100.00
53546;BME280;39432;51.902;10.844;2022-12-29T08:05:07;98219.28;;;11.77;100.00
53546;BME280;39432;51.902;10.844;2022-12-29T08:07:37;98230.19;;;11.82;100.00
53546;BME280;39432;51.902;10.844;2022-12-29T08:10:07;98218.63;;;11.85;100.00
53546;BME280;39432;51.902;10.844;2022-12-29T08:12:40;98232.94;;;11.82;100.00
53546;BME280;39432;51.902;10.844;2022-12-29T08:15:11;98242.28;;;11.81;100.00
53546;BME280;39432;51.902;10.844;2022-12-29T08:17:41;98232.69;;;11.98;100.00
53546;BME280;39432;51.902;10.844;2022-12-29T08:20:11;98250.50;;;12.28;100.00
53546;BME280;39432;51.902;10.844;2022-12-29T08:22:40;98255.06;;;11.86;100.00
53546;BME280;39432;51.902;10.844;2022-12-29T08:25:10;98251.56;;;11.80;100.00
53546;BME280;39432;51.902;10.844;2022-12-29T08:27:42;98254.69;;;11.74;100.00
53546;BME280;39432;51.902;10.844;2022-12-29T08:30:13;98262.47;;;11.67;100.00
53546;BME280;39432;51.902;10.844;2022-12-29T08:32:43;98264.09;;;11.86;100.00
53546;BME280;39432;51.902;10.844;2022-12-29T08:35:12;98273.06;;;11.73;100.00
53546;BME280;39432;51.902;10.844;2022-12-29T08:37:42;98265.28;;;11.43;100.00
53546;BME280;39432;51.902;10.844;2022-12-29T08:40:11;98265.13;;;11.53;100.00
53546;BME280;39432;51.902;10.844;2022-12-29T08:42:44;98274.81;;;12.02;100.00
53546;BME280;39432;51.902;10.844;2022-12-29T08:45:13;98274.38;;;12.27;100.00
53546;BME280;39432;51.902;10.844;2022-12-29T08:47:43;98264.22;;;11.95;100.00
53546;BME280;39432;51.902;10.844;2022-12-29T08:50:12;98260.84;;;12.17;100.00
53546;BME280;39432;51.902;10.844;2022-12-29T08:52:42;98274.72;;;12.07;100.00
53546;BME280;39432;51.902;10.844;2022-12-29T08:55:11;98290.50;;;11.82;100.00
53546;BME280;39432;51.902;10.844;2022-12-29T08:57:44;98301.66;;;11.48;100.00
53546;BME280;39432;51.902;10.844;2022-12-29T09:00:17;98299.34;;;11.74;100.00
53546;BME280;39432;51.902;10.844;2022-12-29T09:02:47;98299.66;;;11.54;100.00
53546;BME280;39432;51.902;10.844;2022-12-29T09:05:17;98295.25;;;12.09;100.00
53546;BME280;39432;51.902;10.844;2022-12-29T09:07:46;98297.06;;;11.63;100.00
53546;BME280;39432;51.902;10.844;2022-12-29T09:10:16;98296.00;;;11.77;100.00
53546;BME280;39432;51.902;10.844;2022-12-29T09:12:49;98290.50;;;11.82;100.00
53546;BME280;39432;51.902;10.844;2022-12-29T09:15:18;98297.59;;;11.83;100.00
53546;BME280;39432;51.902;10.844;2022-12-29T09:17:48;98294.53;;;11.66;100.00
53546;BME280;39432;51.902;10.844;2022-12-29T09:20:19;98294.34;;;11.81;100.00
53546;BME280;39432;51.902;10.844;2022-12-29T09:22:49;98300.53;;;11.49;100.00
53546;BME280;39432;51.902;10.844;2022-12-29T09:25:19;98308.59;;;11.41;100.00
53546;BME280;39432;51.902;10.844;2022-12-29T09:27:53;98317.63;;;11.41;100.00
53546;BME280;39432;51.902;10.844;2022-12-29T09:30:23;98317.00;;;11.25;100.00
53546;BME280;39432;51.902;10.844;2022-12-29T09:32:53;98318.28;;;10.90;100.00
53546;BME280;39432;51.902;10.844;2022-12-29T09:35:22;98320.72;;;10.92;100.00
53546;BME280;39432;51.902;10.844;2022-12-29T09:37:52;98319.19;;;10.80;100.00
53546;BME280;39432;51.902;10.844;2022-12-29T09:40:26;98324.88;;;10.60;100.00
53546;BME280;39432;51.902;10.844;2022-12-29T09:43:19;98329.44;;;10.46;100.00
53546;BME280;39432;51.902;10.844;2022-12-29T09:45:55;98325.75;;;10.26;100.00
53546;BME280;39432;51.902;10.844;2022-12-29T09:48:31;98337.81;;;10.25;100.00
53546;BME280;39432;51.902;10.844;2022-12-29T09:51:07;98326.59;;;10.27;100.00
53546;BME280;39432;51.902;10.844;2022-12-29T09:53:41;98342.13;;;10.32;100.00
53546;BME280;39432;51.902;10.844;2022-12-29T09:56:15;98339.78;;;10.49;100.00
53546;BME280;39432;51.902;10.844;2022-12-29T09:58:53;98320.06;;;10.52;100.00
53546;BME280;39432;51.902;10.844;2022-12-29T10:01:28;98326.50;;;10.66;100.00
53546;BME280;39432;51.902;10.844;2022-12-29T10:04:01;98327.72;;;10.55;100.00
53546;BME280;39432;51.902;10.844;2022-12-29T10:06:37;98334.84;;;10.51;100.00
53546;BME280;39432;51.902;10.844;2022-12-29T10:09:36;98333.78;;;10.47;100.00
53546;BME280;39432;51.902;10.844;2022-12-29T10:12:21;98328.69;;;10.64;100.00
53546;BME280;39432;51.902;10.844;2022-12-29T10:15:03;98349.03;;;10.53;100.00
53546;BME280;39432;51.902;10.844;2022-12-29T10:17:40;98343.22;;;10.60;100.00
53546;BME280;39432;51.902;10.844;2022-12-29T10:20:29;98303.25;;;10.40;100.00
53546;BME280;39432;51.902;10.844;2022-12-29T10:23:13;98306.38;;;10.52;100.00
53546;BME280;39432;51.902;10.844;2022-12-29T10:25:46;98298.84;;;10.44;100.00
53546;BME280;39432;51.902;10.844;2022-12-29T10:28:20;98294.75;;;10.65;100.00
53546;BME280;39432;51.902;10.844;2022-12-29T10:30:53;98298.81;;;10.92;100.00
53546;BME280;39432;51.902;10.844;2022-12-29T10:33:36;98289.97;;;11.00;100.00
53546;BME280;39432;51.902;10.844;2022-12-29T10:36:13;98283.53;;;11.09;100.00
53546;BME280;39432;51.902;10.844;2022-12-29T10:38:48;98291.66;;;11.39;100.00
53546;BME280;39432;51.902;10.844;2022-12-29T10:41:25;98289.34;;;11.46;100.00
53546;BME280;39432;51.902;10.844;2022-12-29T10:43:57;98275.91;;;11.49;100.00
53546;BME280;39432;51.902;10.844;2022-12-29T10:46:33;98283.97;;;11.59;100.00
53546;BME280;39432;51.902;10.844;2022-12-29T10:49:06;98284.69;;;11.65;100.00
53546;BME280;39432;51.902;10.844;2022-12-29T10:51:48;98275.56;;;11.70;100.00
53546;BME280;39432;51.902;10.844;2022-12-29T10:54:25;98300.03;;;11.66;100.00
53546;BME280;39432;51.902;10.844;2022-12-29T10:57:00;98297.34;;;11.61;100.00
53546;BME280;39432;51.902;10.844;2022-12-29T10:59:33;98303.34;;;11.63;100.00
53546;BME280;39432;51.902;10.844;2022-12-29T11:02:18;98301.56;;;11.72;100.00
53546;BME280;39432;51.902;10.844;2022-12-29T11:04:57;98300.16;;;11.94;100.00
53546;BME280;39432;51.902;10.844;2022-12-29T11:07:30;98302.97;;;11.70;100.00
53546;BME280;39432;51.902;10.844;2022-12-29T11:10:16;98302.59;;;11.76;100.00
53546;BME280;39432;51.902;10.844;2022-12-29T11:12:59;98300.28;;;11.65;100.00
53546;BME280;39432;51.902;10.844;2022-12-29T11:15:38;98305.78;;;11.46;100.00
53546;BME280;39432;51.902;10.844;2022-12-29T11:18:21;98308.63;;;11.59;100.00
53546;BME280;39432;51.902;10.844;2022-12-29T11:20:53;98296.47;;;11.47;100.00
53546;BME280;39432;51.902;10.844;2022-12-29T11:23:30;98293.94;;;11.69;100.00
53546;BME280;39432;51.902;10.844;2022-12-29T11:26:15;98293.84;;;11.74;100.00
53546;BME280;39432;51.902;10.844;2022-12-29T11:28:47;98305.81;;;11.83;100.00
53546;BME280;39432;51.902;10.844;2022-12-29T11:31:17;98303.19;;;11.73;100.00
53546;BME280;39432;51.902;10.844;2022-12-29T11:33:52;98300.38;;;11.78;100.00
53546;BME280;39432;51.902;10.844;2022-12-29T11:36:23;98294.88;;;12.16;100.00
53546;BME280;39432;51.902;10.844;2022-12-29T11:38:55;98287.78;;;11.77;100.00
53546;BME280;39432;51.902;10.844;2022-12-29T11:41:27;98291.03;;;11.79;100.00
53546;BME280;39432;51.902;10.844;2022-12-29T11:43:59;98292.16;;;11.78;100.00
53546;BME280;39432;51.902;10.844;2022-12-29T11:46:32;98285.00;;;11.82;100.00
53546;BME280;39432;51.902;10.844;2022-12-29T11:49:06;98279.88;;;11.76;100.00
53546;BME280;39432;51.902;10.844;2022-12-29T11:51:41;98295.03;;;12.06;100.00
53546;BME280;39432;51.902;10.844;2022-12-29T11:54:17;98297.78;;;12.06;100.00
53546;BME280;39432;51.902;10.844;2022-12-29T11:56:48;98290.50;;;11.82;100.00
53546;BME280;39432;51.902;10.844;2022-12-29T11:59:37;98287.06;;;11.91;100.00
53546;BME280;39432;51.902;10.844;2022-12-29T12:02:26;98296.97;;;12.05;100.00
53546;BME280;39432;51.902;10.844;2022-12-29T12:05:24;98299.38;;;12.26;100.00
53546;BME280;39432;51.902;10.844;2022-12-29T12:08:02;98304.63;;;12.22;100.00
53546;BME280;39432;51.902;10.844;2022-12-29T12:10:38;98304.78;;;12.12;100.00
53546;BME280;39432;51.902;10.844;2022-12-29T12:13:19;98305.34;;;11.95;100.00
53546;BME280;39432;51.902;10.844;2022-12-29T12:15:56;98302.47;;;11.86;100.00
53546;BME280;39432;51.902;10.844;2022-12-29T12:18:33;98294.91;;;11.78;100.00
53546;BME280;39432;51.902;10.844;2022-12-29T12:21:15;98298.44;;;11.79;100.00
53546;BME280;39432;51.902;10.844;2022-12-29T12:24:10;98300.38;;;11.78;100.00
53546;BME280;39432;51.902;10.844;2022-12-29T12:26:55;98299.25;;;11.79;100.00
53546;BME280;39432;51.902;10.844;2022-12-29T12:29:32;98301.25;;;11.74;99.13
53546;BME280;39432;51.902;10.844;2022-12-29T12:32:11;98289.13;;;11.61;98.93
53546;BME280;39432;51.902;10.844;2022-12-29T12:34:44;98297.44;;;11.56;99.21
53546;BME280;39432;51.902;10.844;2022-12-29T12:37:30;98285.72;;;11.50;100.00
53546;BME280;39432;51.902;10.844;2022-12-29T12:40:18;98293.06;;;11.55;99.89
53546;BME280;39432;51.902;10.844;2022-12-29T12:42:59;98291.56;;;11.63;100.00
53546;BME280;39432;51.902;10.844;2022-12-29T12:45:49;98305.72;;;11.51;100.00
53546;BME280;39432;51.902;10.844;2022-12-29T12:48:44;98306.63;;;11.65;99.55
53546;BME280;39432;51.902;10.844;2022-12-29T12:51:20;98310.81;;;11.57;100.00
53546;BME280;39432;51.902;10.844;2022-12-29T12:54:06;98320.97;;;11.57;100.00
53546;BME280;39432;51.902;10.844;2022-12-29T12:56:57;98329.78;;;11.54;100.00
53546;BME280;39432;51.902;10.844;2022-12-29T12:59:49;98322.38;;;11.54;100.00
53546;BME280;39432;51.902;10.844;2022-12-29T13:02:34;98327.56;;;11.56;97.87
53546;BME280;39432;51.902;10.844;2022-12-29T13:08:33;98328.44;;;11.51;100.00
53546;BME280;39432;51.902;10.844;2022-12-29T13:11:14;98331.00;;;11.43;100.00
53546;BME280;39432;51.902;10.844;2022-12-29T13:13:56;98330.00;;;11.39;100.00
53546;BME280;39432;51.902;10.844;2022-12-29T13:16:32;98329.84;;;11.49;100.00
53546;BME280;39432;51.902;10.844;2022-12-29T13:19:09;98333.84;;;11.38;100.00
53546;BME280;39432;51.902;10.844;2022-12-29T13:21:51;98336.34;;;11.53;100.00
53546;BME280;39432;51.902;10.844;2022-12-29T13:24:40;98335.84;;;11.51;100.00
53546;BME280;39432;51.902;10.844;2022-12-29T13:27:24;98335.53;;;11.52;100.00
53546;BME280;39432;51.902;10.844;2022-12-29T13:30:05;98345.00;;;11.41;100.00
53546;BME280;39432;51.902;10.844;2022-12-29T13:32:49;98351.91;;;11.39;100.00